Time;durP1;ratioP1;P1;durP2;ratioP2;P2;SDS_P1;SDS_P2;PMS_P1;PMS_P2;Temp;Humidity;BMP_temperature;BMP_pressure;BME280_temperature;BME280_humidity;BME280_pressure;Samples;Min_cycle;Max_cycle;Signal;HPM_P1;HPM_P2
2023/01/30 00:03:05;;;;;;;22.60;10.00;;;;;;;;;;106837;1254;24369;-87
2023/01/30 00:05:33;;;;;;;23.30;9.50;;;;;;;;;;106833;1278;22536;-84
2023/01/30 00:08:22;;;;;;;21.50;8.90;;;;;;;;;;106779;1276;25404;-83
2023/01/30 00:11:06;;;;;;;21.80;9.20;;;;;;;;;;106912;1277;22653;-87
2023/01/30 00:13:58;;;;;;;24.00;9.90;;;;;;;;;;106641;1268;23881;-85
2023/01/30 00:17:16;;;;;;;22.50;9.70;;;;;;;;;;106838;1278;24452;-83
2023/01/30 00:19:49;;;;;;;30.70;11.40;;;;;;;;;;106899;1278;22611;-82
2023/01/30 00:22:58;;;;;;;;;;;;;;;;;;;;;
2023/01/30 00:25:57;;;;;;;29.60;10.90;;;;;;;;;;106920;1269;25331;-83
2023/01/30 00:28:35;;;;;;;25.60;11.90;;;;;;;;;;106920;1276;22567;-84
2023/01/30 00:31:29;;;;;;;21.40;9.30;;;;;;;;;;107077;1277;24187;-83
2023/01/30 00:34:03;;;;;;;26.70;11.30;;;;;;;;;;106977;1259;22529;-86
2023/01/30 00:36:50;;;;;;;23.20;9.90;;;;;;;;;;106843;1278;24870;-85
2023/01/30 00:39:23;;;;;;;20.30;9.50;;;;;;;;;;106867;1278;22534;-86
2023/01/30 00:48:27;;;;;;;27.20;12.00;;;;;;;;;;106947;1277;23214;-83
2023/01/30 00:54:51;;;;;;;25.90;12.60;;;;;;;;;;106877;1259;25234;-83
2023/01/30 00:57:40;;;;;;;24.40;11.40;;;;;;;;;;106872;1265;25332;-83
2023/01/30 01:00:23;;;;;;;;;;;;;;;;;;;;;
2023/01/30 01:03:03;;;;;;;23.50;10.80;;;;;;;;;;106889;1276;22524;-86
2023/01/30 01:05:44;;;;;;;30.30;12.30;;;;;;;;;;106948;1278;25276;-82
2023/01/30 01:08:21;;;;;;;26.70;12.80;;;;;;;;;;106837;1278;22599;-86
2023/01/30 01:11:08;;;;;;;30.20;13.40;;;;;;;;;;106852;1278;25429;-83
2023/01/30 01:13:47;;;;;;;27.40;12.30;;;;;;;;;;106813;1278;22791;-82
2023/01/30 01:16:47;;;;;;;25.40;11.60;;;;;;;;;;106865;1270;24242;-84
2023/01/30 01:20:23;;;;;;;25.20;11.60;;;;;;;;;;106984;1276;25461;-82
2023/01/30 01:22:54;;;;;;;26.00;10.90;;;;;;;;;;106868;1278;24202;-86
2023/01/30 01:25:59;;;;;;;;;;;;;;;;;;;;;
2023/01/30 01:28:47;;;;;;;29.10;11.60;;;;;;;;;;106895;1256;24227;-84
2023/01/30 01:31:15;;;;;;;32.90;13.20;;;;;;;;;;106756;1278;26650;-82
2023/01/30 01:34:11;;;;;;;28.60;11.60;;;;;;;;;;106376;1278;25353;-81
2023/01/30 01:37:39;;;;;;;26.60;10.20;;;;;;;;;;106827;1259;24380;-87
2023/01/30 01:43:41;;;;;;;23.50;9.30;;;;;;;;;;106901;1278;22582;-83
2023/01/30 01:46:27;;;;;;;;;;;;;;;;;;;;;
2023/01/30 01:49:06;;;;;;;18.30;7.70;;;;;;;;;;106906;1276;22656;-83
2023/01/30 01:52:08;;;;;;;;;;;;;;;;;;;;;
2023/01/30 01:58:34;;;;;;;18.90;8.80;;;;;;;;;;105984;1290;24023;-85
2023/01/30 02:01:35;;;;;;;22.30;9.20;;;;;;;;;;105960;1290;24422;-83
2023/01/30 02:04:07;;;;;;;22.30;9.70;;;;;;;;;;106017;1290;25347;-83
2023/01/30 02:07:12;;;;;;;;;;;;;;;;;;;;;
2023/01/30 02:10:21;;;;;;;20.30;8.50;;;;;;;;;;105974;1290;23153;-83
2023/01/30 02:12:52;;;;;;;22.50;9.90;;;;;;;;;;105980;1288;24227;-83
2023/01/30 02:15:53;;;;;;;22.30;9.70;;;;;;;;;;105971;1290;24368;-83
2023/01/30 02:18:25;;;;;;;20.30;8.80;;;;;;;;;;105930;1273;23896;-85
2023/01/30 02:21:36;;;;;;;;;;;;;;;;;;;;;
2023/01/30 02:24:35;;;;;;;23.80;8.90;;;;;;;;;;105571;1294;25281;-82
2023/01/30 02:27:39;;;;;;;19.30;8.60;;;;;;;;;;106000;1274;24371;-84
2023/01/30 02:30:42;;;;;;;19.80;8.30;;;;;;;;;;105998;1290;25581;-83
2023/01/30 02:33:58;;;;;;;;;;;;;;;;;;;;;
2023/01/30 02:37:09;;;;;;;;;;;;;;;;;;;;;
2023/01/30 02:39:58;;;;;;;18.60;7.70;;;;;;;;;;106504;1271;22539;-87
2023/01/30 02:42:54;;;;;;;19.00;8.30;;;;;;;;;;106385;1283;22763;-83
2023/01/30 02:45:42;;;;;;;19.10;8.90;;;;;;;;;;106449;1283;22662;-84
2023/01/30 02:48:59;;;;;;;;;;;;;;;;;;;;;
2023/01/30 02:52:36;;;;;;;18.30;8.60;;;;;;;;;;106452;1285;24212;-86
2023/01/30 02:55:22;;;;;;;;;;;;;;;;;;;;;
2023/01/30 02:59:01;;;;;;;19.00;7.80;;;;;;;;;;105203;1283;25335;-82
2023/01/30 03:01:57;;;;;;;;;;;;;;;;;;;;;
2023/01/30 03:05:33;;;;;;;20.30;9.70;;;;;;;;;;106072;1290;23013;-85
2023/01/30 03:08:46;;;;;;;20.00;9.20;;;;;;;;;;105663;1274;24287;-83
2023/01/30 03:11:37;;;;;;;19.30;8.90;;;;;;;;;;105737;1295;23009;-81
2023/01/30 03:15:15;;;;;;;;;;;;;;;;;;;;;
2023/01/30 03:18:16;;;;;;;;;;;;;;;;;;;;;
2023/01/30 03:21:34;;;;;;;;;;;;;;;;;;;;;
2023/01/30 03:24:33;;;;;;;18.10;8.30;;;;;;;;;;105323;1299;22688;-83
2023/01/30 03:27:14;;;;;;;17.20;7.70;;;;;;;;;;105077;1299;22556;-83
2023/01/30 03:30:09;;;;;;;16.80;7.00;;;;;;;;;;105728;1275;22550;-82
2023/01/30 03:32:39;;;;;;;16.70;7.40;;;;;;;;;;106052;1287;22666;-87
2023/01/30 03:35:22;;;;;;;;;;;;;;;;;;;;;
2023/01/30 03:38:13;;;;;;;18.70;7.90;;;;;;;;;;106435;1282;25546;-88
2023/01/30 03:40:59;;;;;;;;;;;;;;;;;;;;;
2023/01/30 03:43:48;;;;;;;16.80;7.00;;;;;;;;;;106682;1278;24418;-83
2023/01/30 03:46:48;;;;;;;15.10;6.90;;;;;;;;;;106544;1281;22110;-86
2023/01/30 03:49:31;;;;;;;;;;;;;;;;;;;;;
2023/01/30 03:52:17;;;;;;;14.50;6.60;;;;;;;;;;106867;1277;22560;-82
2023/01/30 03:55:04;;;;;;;15.20;6.90;;;;;;;;;;106866;1277;22530;-84
2023/01/30 03:57:49;;;;;;;;;;;;;;;;;;;;;
2023/01/30 04:00:58;;;;;;;15.20;7.50;;;;;;;;;;106827;1271;25323;-84
2023/01/30 04:04:05;;;;;;;14.90;7.20;;;;;;;;;;106409;1283;22626;-83
2023/01/30 04:06:41;;;;;;;15.10;7.00;;;;;;;;;;106512;1283;25350;-84
2023/01/30 04:10:19;;;;;;;16.60;7.50;;;;;;;;;;106583;1260;24351;-82
2023/01/30 04:12:33;;;;;;;15.60;7.30;;;;;;;;;;106444;1278;25241;-85
2023/01/30 04:15:13;;;;;;;;;;;;;;;;;;;;;
2023/01/30 04:18:21;;;;;;;18.80;7.10;;;;;;;;;;106408;1283;25345;-81
2023/01/30 04:21:14;;;;;;;16.50;7.90;;;;;;;;;;106499;1265;22561;-82
2023/01/30 04:23:56;;;;;;;;;;;;;;;;;;;;;
2023/01/30 04:27:13;;;;;;;;;;;;;;;;;;;;;
2023/01/30 04:29:39;;;;;;;16.00;7.10;;;;;;;;;;109988;1283;22178;-82
2023/01/30 04:32:20;;;;;;;17.70;7.50;;;;;;;;;;109936;1264;23379;-82
2023/01/30 04:34:54;;;;;;;16.10;7.90;;;;;;;;;;109989;1283;22168;-81
2023/01/30 04:37:32;;;;;;;17.30;6.90;;;;;;;;;;110014;1282;23013;-81
2023/01/30 04:40:07;;;;;;;14.60;6.80;;;;;;;;;;110009;1279;22404;-81
2023/01/30 04:42:53;;;;;;;17.50;7.60;;;;;;;;;;110289;1260;22856;-78
2023/01/30 04:45:46;;;;;;;15.50;6.70;;;;;;;;;;110369;1276;22133;-78
2023/01/30 04:48:15;;;;;;;15.60;6.70;;;;;;;;;;110210;1278;22171;-78
2023/01/30 04:51:05;;;;;;;16.40;7.90;;;;;;;;;;110043;1257;22462;-79
2023/01/30 04:53:33;;;;;;;16.30;7.70;;;;;;;;;;109996;1281;23072;-77
2023/01/30 04:55:59;;;;;;;18.90;8.80;;;;;;;;;;109998;1281;22365;-77
2023/01/30 04:58:25;;;;;;;18.70;9.20;;;;;;;;;;110072;1281;22158;-78
2023/01/30 05:01:12;;;;;;;22.70;10.00;;;;;;;;;;110019;1281;22284;-79
2023/01/30 05:03:51;;;;;;;;;;;;;;;;;;;;;
2023/01/30 05:06:25;;;;;;;22.70;8.40;;;;;;;;;;110002;1281;22181;-77
2023/01/30 05:08:52;;;;;;;28.30;11.10;;;;;;;;;;110011;1270;22482;-78
2023/01/30 05:11:19;;;;;;;21.10;9.40;;;;;;;;;;110057;1281;22250;-79
2023/01/30 05:13:45;;;;;;;19.40;8.30;;;;;;;;;;110076;1263;22773;-77
2023/01/30 05:16:32;;;;;;;16.20;7.40;;;;;;;;;;110054;1281;22160;-78
2023/01/30 05:19:12;;;;;;;18.30;7.50;;;;;;;;;;110085;1279;22187;-78
2023/01/30 05:21:49;;;;;;;15.90;7.60;;;;;;;;;;110161;1277;22176;-78
2023/01/30 05:24:56;;;;;;;16.60;7.20;;;;;;;;;;110258;1257;22119;-78
2023/01/30 05:28:14;;;;;;;18.80;8.20;;;;;;;;;;110352;1278;21994;-78
2023/01/30 05:30:36;;;;;;;14.20;6.40;;;;;;;;;;110208;1278;22001;-78
2023/01/30 05:33:05;;;;;;;23.60;9.20;;;;;;;;;;110333;1278;22923;-79
2023/01/30 05:35:31;;;;;;;18.80;8.80;;;;;;;;;;110262;1257;22918;-78
2023/01/30 05:37:57;;;;;;;18.70;8.40;;;;;;;;;;110149;1278;22995;-77
2023/01/30 05:40:26;;;;;;;18.50;8.10;;;;;;;;;;110194;1278;22945;-78
2023/01/30 05:42:56;;;;;;;19.30;8.90;;;;;;;;;;110383;1278;22151;-79
2023/01/30 05:45:24;;;;;;;17.20;8.30;;;;;;;;;;110313;1256;22191;-78
2023/01/30 05:48:18;;;;;;;17.00;7.60;;;;;;;;;;110281;1278;23121;-78
2023/01/30 05:50:44;;;;;;;18.70;8.00;;;;;;;;;;110405;1277;22860;-78
2023/01/30 05:53:10;;;;;;;18.70;8.80;;;;;;;;;;110243;1277;22149;-76
2023/01/30 05:55:42;;;;;;;18.70;8.00;;;;;;;;;;110374;1257;22139;-78
2023/01/30 05:58:11;;;;;;;18.90;8.10;;;;;;;;;;110186;1273;22169;-77
2023/01/30 06:00:46;;;;;;;15.70;7.90;;;;;;;;;;110128;1278;22137;-78
2023/01/30 06:03:13;;;;;;;15.20;6.90;;;;;;;;;;110384;1278;22106;-77
2023/01/30 06:05:39;;;;;;;16.30;6.80;;;;;;;;;;110327;1257;22160;-79
2023/01/30 06:08:07;;;;;;;18.90;8.30;;;;;;;;;;110212;1278;22187;-77
2023/01/30 06:10:34;;;;;;;20.30;9.70;;;;;;;;;;110268;1278;22158;-78
2023/01/30 06:13:10;;;;;;;17.90;8.90;;;;;;;;;;110198;1278;23143;-77
2023/01/30 06:22:44;;;;;;;25.80;12.30;;;;;;;;;;109893;1285;23049;-79
2023/01/30 06:25:11;;;;;;;24.60;11.60;;;;;;;;;;109895;1264;22207;-79
2023/01/30 06:35:28;;;;;;;25.20;10.20;;;;;;;;;;109504;1268;22199;-79
2023/01/30 06:38:04;;;;;;;22.60;11.00;;;;;;;;;;109328;1291;22213;-79
2023/01/30 06:40:35;;;;;;;35.60;13.00;;;;;;;;;;109285;1291;22145;-79
2023/01/30 06:43:06;;;;;;;51.90;16.90;;;;;;;;;;109324;1291;23029;-79
2023/01/30 06:45:32;;;;;;;52.30;16.70;;;;;;;;;;109309;1273;22829;-79
2023/01/30 06:48:04;;;;;;;56.00;17.20;;;;;;;;;;109348;1291;22424;-79
2023/01/30 06:50:54;;;;;;;22.70;9.60;;;;;;;;;;109321;1291;22175;-81
2023/01/30 06:53:29;;;;;;;;;;;;;;;;;;;;;
2023/01/30 06:56:06;;;;;;;18.50;8.20;;;;;;;;;;109522;1268;22181;-80
2023/01/30 06:58:45;;;;;;;21.50;8.50;;;;;;;;;;109657;1287;23028;-79
2023/01/30 07:01:14;;;;;;;20.50;8.40;;;;;;;;;;109683;1287;22213;-79
2023/01/30 07:04:05;;;;;;;22.60;8.20;;;;;;;;;;109777;1287;22165;-80
2023/01/30 07:06:37;;;;;;;15.90;7.70;;;;;;;;;;109651;1269;22176;-81
2023/01/30 07:09:21;;;;;;;18.60;8.10;;;;;;;;;;109890;1283;22356;-80
2023/01/30 07:11:50;;;;;;;19.90;7.70;;;;;;;;;;110022;1280;22970;-79
2023/01/30 07:14:18;;;;;;;22.80;7.90;;;;;;;;;;110305;1278;22153;-79
2023/01/30 07:16:44;;;;;;;15.10;6.90;;;;;;;;;;108634;1257;2105207;-80
2023/01/30 07:19:13;;;;;;;21.30;8.30;;;;;;;;;;110052;1279;22153;-81
2023/01/30 07:25:36;;;;;;;14.10;6.00;;;;;;;;;;109814;1262;22722;-79
2023/01/30 07:28:03;;;;;;;17.30;7.20;;;;;;;;;;109901;1285;22815;-81
2023/01/30 07:38:50;;;;;;;;;;;;;;;;;;;;;
2023/01/30 07:45:43;;;;;;;16.10;7.40;;;;;;;;;;110004;1283;22257;-79
2023/01/30 07:48:29;;;;;;;14.80;6.70;;;;;;;;;;109935;1264;22503;-80
2023/01/30 07:51:13;;;;;;;14.70;6.80;;;;;;;;;;109962;1284;22187;-81
2023/01/30 07:53:57;;;;;;;14.50;6.20;;;;;;;;;;109965;1284;22238;-81
2023/01/30 07:56:28;;;;;;;16.30;7.10;;;;;;;;;;109933;1260;22162;-81
2023/01/30 07:59:15;;;;;;;16.60;8.00;;;;;;;;;;109873;1284;22283;-80
2023/01/30 08:01:47;;;;;;;15.90;8.10;;;;;;;;;;109947;1284;22176;-80
2023/01/30 08:04:29;;;;;;;15.50;7.30;;;;;;;;;;109872;1284;22182;-80
2023/01/30 08:06:58;;;;;;;18.60;8.00;;;;;;;;;;109924;1261;22260;-79
2023/01/30 08:10:10;;;;;;;17.00;8.10;;;;;;;;;;109936;1280;22156;-81
2023/01/30 08:12:19;;;;;;;20.20;8.70;;;;;;;;;;109904;1284;22252;-80
2023/01/30 08:14:46;;;;;;;15.70;7.30;;;;;;;;;;109851;1284;22857;-79
2023/01/30 08:17:15;;;;;;;15.10;6.20;;;;;;;;;;109904;1264;22937;-86
2023/01/30 08:19:44;;;;;;;16.70;7.20;;;;;;;;;;110138;1279;22694;-81
2023/01/30 08:22:26;;;;;;;14.70;7.00;;;;;;;;;;110069;1279;22113;-81
2023/01/30 08:24:52;;;;;;;13.50;6.00;;;;;;;;;;110236;1278;22840;-81
2023/01/30 08:27:21;;;;;;;13.20;5.60;;;;;;;;;;110173;1256;22176;-81
2023/01/30 08:29:50;;;;;;;19.30;6.70;;;;;;;;;;110162;1279;22146;-78
2023/01/30 08:32:16;;;;;;;26.00;9.30;;;;;;;;;;110141;1279;22186;-82
2023/01/30 08:34:48;;;;;;;22.20;7.50;;;;;;;;;;110183;1279;22126;-82
2023/01/30 08:37:17;;;;;;;28.40;10.70;;;;;;;;;;110169;1256;22191;-82
2023/01/30 08:39:46;;;;;;;42.40;15.00;;;;;;;;;;110107;1278;22140;-80
2023/01/30 08:42:15;;;;;;;31.00;10.50;;;;;;;;;;110383;1278;21999;-82
2023/01/30 08:44:47;;;;;;;28.30;10.20;;;;;;;;;;110204;1278;22102;-83
2023/01/30 08:47:13;;;;;;;26.10;9.30;;;;;;;;;;110134;1278;22163;-82
2023/01/30 08:49:39;;;;;;;22.60;7.50;;;;;;;;;;110423;1262;22146;-79
2023/01/30 08:52:08;;;;;;;33.90;9.70;;;;;;;;;;110110;1279;22184;-83
2023/01/30 08:54:34;;;;;;;28.70;9.20;;;;;;;;;;110206;1279;22121;-82
2023/01/30 08:57:13;;;;;;;;;;;;;;;;;;;;;
2023/01/30 08:59:50;;;;;;;17.20;6.90;;;;;;;;;;110601;1256;22184;-83
2023/01/30 09:02:19;;;;;;;13.30;5.70;;;;;;;;;;110220;1278;22126;-82
2023/01/30 09:04:49;;;;;;;15.70;6.20;;;;;;;;;;110176;1272;22113;-84
2023/01/30 09:07:18;;;;;;;14.60;5.70;;;;;;;;;;110374;1278;22995;-83
2023/01/30 09:09:44;;;;;;;12.00;5.50;;;;;;;;;;110486;1258;22852;-82
2023/01/30 09:12:31;;;;;;;;;;;;;;;;;;;;;
2023/01/30 09:14:59;;;;;;;14.60;5.80;;;;;;;;;;110133;1279;23216;-81
2023/01/30 09:17:35;;;;;;;15.00;6.30;;;;;;;;;;110198;1279;22914;-81
2023/01/30 09:20:09;;;;;;;16.10;7.20;;;;;;;;;;110263;1259;22117;-82
2023/01/30 09:22:35;;;;;;;20.10;7.90;;;;;;;;;;110161;1278;22094;-82
2023/01/30 09:25:21;;;;;;;;;;;;;;;;;;;;;
2023/01/30 09:28:25;;;;;;;15.60;6.90;;;;;;;;;;109993;1259;22416;-81
2023/01/30 09:30:59;;;;;;;16.40;7.20;;;;;;;;;;110023;1283;22166;-84
2023/01/30 09:33:31;;;;;;;19.30;7.30;;;;;;;;;;109931;1283;22169;-83
2023/01/30 09:36:08;;;;;;;31.30;11.60;;;;;;;;;;109947;1283;23003;-84
2023/01/30 09:38:34;;;;;;;18.90;7.40;;;;;;;;;;110000;1259;22264;-82
2023/01/30 09:41:19;;;;;;;20.80;7.50;;;;;;;;;;110011;1282;22154;-83
2023/01/30 09:44:01;;;;;;;17.90;6.50;;;;;;;;;;110088;1282;22146;-81
2023/01/30 09:46:47;;;;;;;16.30;7.30;;;;;;;;;;110053;1282;22174;-82
2023/01/30 09:56:35;;;;;;;16.70;7.30;;;;;;;;;;109691;1289;22180;-82
2023/01/30 09:59:11;;;;;;;15.80;6.60;;;;;;;;;;109646;1265;22900;-83
2023/01/30 10:09:45;;;;;;;16.50;6.00;;;;;;;;;;109162;1261;22315;-82
2023/01/30 10:12:52;;;;;;;16.70;6.30;;;;;;;;;;110439;1262;22121;-82
2023/01/30 10:16:02;;;;;;;;;;;;;;;;;;;;;
2023/01/30 10:19:16;;;;;;;;;;;;;;;;;;;;;
2023/01/30 10:23:46;;;;;;;;;;;;;;;;;;;;;
2023/01/30 10:30:34;;;;;;;;;;;;;;;;;;;;;
2023/01/30 10:33:54;;;;;;;;;;;;;;;;;;;;;
2023/01/30 10:44:37;;;;;;;17.70;6.20;;;;;;;;;;108103;1285;21985;-82
2023/01/30 11:01:41;;;;;;;15.80;6.60;;;;;;;;;;109960;1284;22146;-82
2023/01/30 11:04:45;;;;;;;19.90;7.80;;;;;;;;;;110039;1262;22235;-82
2023/01/30 11:07:16;;;;;;;16.20;7.40;;;;;;;;;;109890;1285;23167;-86
2023/01/30 11:10:09;;;;;;;17.20;7.80;;;;;;;;;;109824;1285;22139;-82
2023/01/30 11:12:38;;;;;;;13.50;5.50;;;;;;;;;;109891;1285;22045;-81
2023/01/30 11:15:38;;;;;;;;;;;;;;;;;;;;;
2023/01/30 11:22:24;;;;;;;11.30;3.00;;;;;;;;;;109744;1288;22241;-79
2023/01/30 11:25:06;;;;;;;9.80;3.10;;;;;;;;;;109622;1270;22794;-81
2023/01/30 11:28:07;;;;;;;7.20;2.10;;;;;;;;;;109661;1287;22125;-81
2023/01/30 11:31:07;;;;;;;8.40;2.70;;;;;;;;;;109768;1287;22180;-85
2023/01/30 11:33:39;;;;;;;9.50;2.90;;;;;;;;;;109753;1264;22207;-83
2023/01/30 11:36:51;;;;;;;9.00;2.40;;;;;;;;;;109872;1286;22159;-81
2023/01/30 11:39:22;;;;;;;8.20;2.50;;;;;;;;;;109357;1292;22075;-78
2023/01/30 11:41:56;;;;;;;5.80;1.70;;;;;;;;;;109359;1292;22247;-81
2023/01/30 11:44:57;;;;;;;4.40;1.40;;;;;;;;;;109197;1276;22930;-79
2023/01/30 11:47:30;;;;;;;5.20;1.90;;;;;;;;;;109368;1292;22274;-79
2023/01/30 11:50:01;;;;;;;4.90;1.80;;;;;;;;;;109206;1292;22210;-77
2023/01/30 11:52:30;;;;;;;5.70;1.60;;;;;;;;;;109366;1292;22188;-81
2023/01/30 11:55:07;;;;;;;8.30;2.90;;;;;;;;;;109427;1272;22163;-80
2023/01/30 11:57:43;;;;;;;6.20;1.70;;;;;;;;;;109633;1288;22181;-80
2023/01/30 12:00:19;;;;;;;5.40;2.10;;;;;;;;;;109625;1289;22068;-80
2023/01/30 12:02:50;;;;;;;6.30;2.00;;;;;;;;;;109667;1289;22073;-80
2023/01/30 12:05:30;;;;;;;5.60;1.70;;;;;;;;;;109760;1272;22048;-78
2023/01/30 12:08:15;;;;;;;9.80;3.60;;;;;;;;;;109633;1289;22526;-77
2023/01/30 12:10:46;;;;;;;7.60;3.00;;;;;;;;;;109948;1281;22789;-80
2023/01/30 12:13:25;;;;;;;6.00;1.90;;;;;;;;;;110049;1281;22172;-83
2023/01/30 12:16:05;;;;;;;8.00;2.70;;;;;;;;;;110265;1263;22132;-78
2023/01/30 12:18:37;;;;;;;8.60;1.50;;;;;;;;;;109978;1282;22129;-77
2023/01/30 12:21:26;;;;;;;4.70;1.20;;;;;;;;;;109983;1283;22821;-79
2023/01/30 12:24:20;;;;;;;4.90;1.40;;;;;;;;;;110021;1283;22124;-79
2023/01/30 12:27:10;;;;;;;7.00;1.80;;;;;;;;;;110319;1264;22162;-76
2023/01/30 12:29:46;;;;;;;4.60;1.50;;;;;;;;;;110016;1282;21996;-76
2023/01/30 12:32:17;;;;;;;6.00;1.70;;;;;;;;;;110019;1282;22845;-77
2023/01/30 12:35:43;;;;;;;4.90;1.30;;;;;;;;;;109711;1270;22176;-77
2023/01/30 12:38:24;;;;;;;8.20;1.70;;;;;;;;;;109707;1288;21725;-77
2023/01/30 12:41:20;;;;;;;6.30;1.70;;;;;;;;;;109610;1288;22808;-78
2023/01/30 12:44:32;;;;;;;7.60;2.00;;;;;;;;;;109326;1292;22276;-78
2023/01/30 12:47:30;;;;;;;5.40;1.70;;;;;;;;;;109134;1276;22247;-79
2023/01/30 12:50:12;;;;;;;4.80;1.40;;;;;;;;;;108935;1294;22239;-83
2023/01/30 12:53:09;;;;;;;5.70;1.60;;;;;;;;;;108978;1294;22171;-78
2023/01/30 12:56:01;;;;;;;9.30;3.00;;;;;;;;;;109061;1276;22095;-80
2023/01/30 12:58:34;;;;;;;10.80;3.80;;;;;;;;;;108990;1295;22126;-78
2023/01/30 13:01:41;;;;;;;8.70;2.60;;;;;;;;;;108975;1295;22081;-79
2023/01/30 13:04:53;;;;;;;13.10;5.40;;;;;;;;;;109021;1295;22216;-77
2023/01/30 13:07:51;;;;;;;23.20;10.60;;;;;;;;;;109155;1276;22100;-80
2023/01/30 13:10:40;;;;;;;25.00;10.90;;;;;;;;;;109151;1294;22222;-79
2023/01/30 13:13:32;;;;;;;20.20;5.60;;;;;;;;;;109274;1292;22186;-80
2023/01/30 13:16:17;;;;;;;16.90;4.00;;;;;;;;;;109158;1275;23476;-80
2023/01/30 13:18:56;;;;;;;13.60;3.40;;;;;;;;;;109255;1291;22956;-79
2023/01/30 13:21:43;;;;;;;7.80;2.90;;;;;;;;;;109486;1287;22920;-80
2023/01/30 13:31:29;;;;;;;12.30;3.50;;;;;;;;;;104383;1288;544807;-81
2023/01/30 13:34:17;;;;;;;9.40;2.30;;;;;;;;;;106119;1282;25586;-82
2023/01/30 13:36:51;;;;;;;11.40;3.10;;;;;;;;;;106138;1280;24378;-80
2023/01/30 13:39:26;;;;;;;11.20;2.70;;;;;;;;;;106947;1275;22533;-79
2023/01/30 13:42:08;;;;;;;10.10;3.40;;;;;;;;;;106856;1275;24307;-81
2023/01/30 13:45:26;;;;;;;7.80;2.10;;;;;;;;;;103033;1266;5385106;-81
2023/01/30 13:48:15;;;;;;;11.30;2.70;;;;;;;;;;107251;1266;22537;-80
2023/01/30 13:50:58;;;;;;;9.10;2.70;;;;;;;;;;107072;1257;22541;-81
2023/01/30 13:53:59;;;;;;;;;;;;;;;;;;;;;
2023/01/30 13:56:53;;;;;;;10.60;3.20;;;;;;;;;;107267;1266;22557;-80
2023/01/30 14:00:00;;;;;;;9.90;3.10;;;;;;;;;;107123;1272;24223;-81
2023/01/30 14:02:33;;;;;;;7.90;2.80;;;;;;;;;;107253;1256;22533;-81
2023/01/30 14:05:08;;;;;;;6.80;2.40;;;;;;;;;;106998;1273;22553;-81
2023/01/30 14:07:46;;;;;;;9.80;3.40;;;;;;;;;;107004;1271;22656;-82
2023/01/30 14:10:25;;;;;;;9.70;2.90;;;;;;;;;;107147;1272;23908;-84
2023/01/30 14:13:06;;;;;;;7.80;1.80;;;;;;;;;;107232;1257;22530;-82
2023/01/30 14:15:42;;;;;;;7.20;2.60;;;;;;;;;;107446;1266;22546;-81
2023/01/30 14:18:32;;;;;;;7.20;2.40;;;;;;;;;;107226;1266;24302;-83
2023/01/30 14:21:24;;;;;;;9.70;3.60;;;;;;;;;;107147;1251;22533;-83
2023/01/30 14:24:01;;;;;;;15.20;5.60;;;;;;;;;;107015;1274;22538;-81
2023/01/30 14:27:15;;;;;;;40.90;10.10;;;;;;;;;;103732;1310;545365;-82
2023/01/30 14:30:03;;;;;;;11.70;4.70;;;;;;;;;;106140;1289;25380;-81
2023/01/30 14:32:49;;;;;;;9.00;2.70;;;;;;;;;;106116;1289;22568;-80
2023/01/30 14:35:27;;;;;;;12.30;4.10;;;;;;;;;;106134;1289;25179;-82
2023/01/30 14:38:21;;;;;;;8.00;3.00;;;;;;;;;;106195;1277;22540;-81
2023/01/30 14:41:32;;;;;;;;;;;;;;;;;;;;;
2023/01/30 14:44:37;;;;;;;9.50;2.10;;;;;;;;;;106250;1287;24196;-82
2023/01/30 14:47:58;;;;;;;8.20;2.30;;;;;;;;;;106055;1272;25383;-86
2023/01/30 14:50:23;;;;;;;8.50;2.40;;;;;;;;;;106070;1281;23893;-83
2023/01/30 14:53:03;;;;;;;9.90;2.60;;;;;;;;;;106162;1281;22563;-83
2023/01/30 14:55:43;;;;;;;10.10;3.70;;;;;;;;;;106379;1284;23923;-85
2023/01/30 14:58:17;;;;;;;10.20;2.60;;;;;;;;;;106381;1278;23364;-82
2023/01/30 15:01:28;;;;;;;8.50;2.60;;;;;;;;;;106762;1284;22783;-84
2023/01/30 15:04:13;;;;;;;8.60;2.60;;;;;;;;;;106786;1278;24229;-85
2023/01/30 15:07:13;;;;;;;;;;;;;;;;;;;;;
2023/01/30 15:10:37;;;;;;;10.40;3.20;;;;;;;;;;106623;1275;23371;-84
2023/01/30 15:13:08;;;;;;;15.40;3.70;;;;;;;;;;106552;1283;22584;-86
2023/01/30 15:15:57;;;;;;;9.70;2.40;;;;;;;;;;106659;1278;25376;-83
2023/01/30 15:19:33;;;;;;;11.00;3.30;;;;;;;;;;106684;1262;22661;-81
2023/01/30 15:21:59;;;;;;;10.80;2.80;;;;;;;;;;106630;1274;24260;-81
2023/01/30 15:24:41;;;;;;;8.80;2.50;;;;;;;;;;106542;1281;22996;-87
2023/01/30 15:28:00;;;;;;;;;;;;;;;;;;;;;
2023/01/30 15:30:55;;;;;;;7.20;1.90;;;;;;;;;;106820;1278;22554;-82
2023/01/30 15:33:30;;;;;;;9.00;2.00;;;;;;;;;;106531;1275;22506;-82
2023/01/30 15:36:10;;;;;;;6.40;1.60;;;;;;;;;;106606;1278;25240;-82
2023/01/30 15:38:50;;;;;;;;;;;;;;;;;;;;;
2023/01/30 15:44:54;;;;;;;12.20;3.30;;;;;;;;;;106607;1278;22627;-79
2023/01/30 15:53:42;;;;;;;11.30;2.80;;;;;;;;;;106637;1274;26513;-80
2023/01/30 15:56:35;;;;;;;12.50;2.70;;;;;;;;;;106986;1271;25409;-82
2023/01/30 15:59:20;;;;;;;8.90;2.80;;;;;;;;;;107016;1259;25240;-85
2023/01/30 16:02:29;;;;;;;8.60;2.40;;;;;;;;;;104741;1286;544742;-88
2023/01/30 16:05:26;;;;;;;11.40;3.70;;;;;;;;;;106407;1266;22672;-87
2023/01/30 16:09:07;;;;;;;8.90;2.10;;;;;;;;;;106013;1289;25419;-87
2023/01/30 16:12:03;;;;;;;10.50;2.50;;;;;;;;;;106347;1285;22714;-88
2023/01/30 16:18:41;;;;;;;10.20;2.60;;;;;;;;;;106362;1280;25298;-90
2023/01/30 16:21:42;;;;;;;7.00;1.50;;;;;;;;;;105901;1274;22597;-82
2023/01/30 16:24:41;;;;;;;7.40;1.40;;;;;;;;;;105988;1271;25345;-83
2023/01/30 16:27:37;;;;;;;6.90;1.70;;;;;;;;;;105527;1295;23902;-85
2023/01/30 16:30:10;;;;;;;17.60;4.00;;;;;;;;;;105692;1295;22678;-90
2023/01/30 16:33:21;;;;;;;40.80;15.20;;;;;;;;;;105286;1280;26686;-88
2023/01/30 16:36:27;;;;;;;8.90;2.70;;;;;;;;;;106028;1286;22563;-84
2023/01/30 16:39:08;;;;;;;7.90;2.30;;;;;;;;;;105760;1292;24264;-84
2023/01/30 16:42:03;;;;;;;10.10;3.50;;;;;;;;;;105770;1286;22537;-81
2023/01/30 16:45:00;;;;;;;16.00;6.20;;;;;;;;;;105803;1290;24421;-85
2023/01/30 16:47:53;;;;;;;10.50;4.20;;;;;;;;;;106155;1284;22654;-83
2023/01/30 16:50:24;;;;;;;11.90;4.50;;;;;;;;;;105931;1289;22555;-79
2023/01/30 16:53:52;;;;;;;14.50;3.80;;;;;;;;;;106034;1289;22546;-81
2023/01/30 16:56:24;;;;;;;11.90;3.50;;;;;;;;;;106051;1289;22561;-84
2023/01/30 16:58:58;;;;;;;17.90;5.90;;;;;;;;;;106342;1283;22945;-82
2023/01/30 17:01:59;;;;;;;9.90;3.10;;;;;;;;;;106154;1283;22543;-85
2023/01/30 17:04:44;;;;;;;13.30;3.00;;;;;;;;;;110435;1272;22115;-82
2023/01/30 17:07:49;;;;;;;17.70;4.90;;;;;;;;;;110296;1276;22866;-85
2023/01/30 17:10:41;;;;;;;10.50;2.60;;;;;;;;;;110350;1276;22192;-84
2023/01/30 17:13:44;;;;;;;;;;;;;;;;;;;;;
2023/01/30 17:16:41;;;;;;;7.30;2.10;;;;;;;;;;110355;1275;22113;-83
2023/01/30 17:19:33;;;;;;;8.90;2.70;;;;;;;;;;110631;1275;22343;-83
2023/01/30 17:22:04;;;;;;;11.20;4.90;;;;;;;;;;110466;1275;22118;-81
2023/01/30 17:24:34;;;;;;;8.50;2.70;;;;;;;;;;110274;1256;22811;-82
2023/01/30 17:27:07;;;;;;;6.70;2.60;;;;;;;;;;110840;1267;22157;-84
2023/01/30 17:29:44;;;;;;;;;;;;;;;;;;;;;
2023/01/30 17:32:24;;;;;;;10.00;2.00;;;;;;;;;;110316;1278;22098;-81
2023/01/30 17:34:58;;;;;;;9.00;2.60;;;;;;;;;;110707;1258;22300;-81
2023/01/30 17:37:25;;;;;;;9.80;2.90;;;;;;;;;;110425;1277;22800;-81
2023/01/30 17:39:51;;;;;;;9.30;2.60;;;;;;;;;;110316;1277;22918;-81
2023/01/30 17:42:23;;;;;;;10.40;2.20;;;;;;;;;;110327;1277;22106;-85
2023/01/30 17:44:59;;;;;;;8.80;2.40;;;;;;;;;;110664;1259;22879;-82
2023/01/30 17:47:29;;;;;;;6.80;1.70;;;;;;;;;;110294;1278;22781;-83
2023/01/30 17:50:11;;;;;;;8.60;2.20;;;;;;;;;;110293;1278;22162;-81
2023/01/30 17:52:38;;;;;;;8.10;2.10;;;;;;;;;;110273;1278;22224;-83
2023/01/30 17:55:18;;;;;;;8.60;2.30;;;;;;;;;;110411;1259;22146;-82
2023/01/30 17:58:10;;;;;;;11.00;2.80;;;;;;;;;;110441;1277;22328;-88
2023/01/30 18:00:39;;;;;;;9.10;2.50;;;;;;;;;;110459;1277;22167;-85
2023/01/30 18:03:08;;;;;;;10.80;2.30;;;;;;;;;;110427;1277;21726;-80
2023/01/30 18:05:48;;;;;;;;;;;;;;;;;;;;;
2023/01/30 18:08:37;;;;;;;10.50;2.90;;;;;;;;;;110257;1278;22145;-83
2023/01/30 18:11:03;;;;;;;11.00;2.80;;;;;;;;;;110280;1278;22125;-83
2023/01/30 18:13:49;;;;;;;16.80;4.80;;;;;;;;;;110322;1278;22122;-81
2023/01/30 18:16:54;;;;;;;;;;;;;;;;;;;;;
2023/01/30 18:19:43;;;;;;;15.30;4.00;;;;;;;;;;110434;1277;22169;-81
2023/01/30 18:22:31;;;;;;;12.10;3.10;;;;;;;;;;110420;1275;22145;-81
2023/01/30 18:25:23;;;;;;;8.50;2.30;;;;;;;;;;110448;1254;22124;-82
2023/01/30 18:28:34;;;;;;;9.30;2.20;;;;;;;;;;110418;1277;22924;-81
2023/01/30 18:31:03;;;;;;;11.70;3.10;;;;;;;;;;110439;1266;22201;-81
2023/01/30 18:33:43;;;;;;;9.40;2.20;;;;;;;;;;110451;1277;22345;-85
2023/01/30 18:37:09;;;;;;;8.20;2.50;;;;;;;;;;110373;1259;22171;-82
2023/01/30 18:39:50;;;;;;;;;;;;;;;;;;;;;
2023/01/30 18:46:22;;;;;;;14.70;3.60;;;;;;;;;;110266;1260;22169;-81
2023/01/30 18:48:52;;;;;;;49.80;15.30;;;;;;;;;;110159;1279;22866;-82
2023/01/30 18:51:31;;;;;;;16.60;3.70;;;;;;;;;;110285;1279;22631;-82